Luis Lopez, New Mexico
Current Conditions -  °F | °C
As of 3:35 AM on Wednesday 22 Oct 2014 (Local Time) from KONM Reporting Station
Scattered Clouds Scattered Clouds  
Wind Chill: 11°   Ceiling: Unl
Heat Index: 11°   Visibility: 10mi
Dew Point: 10°   Wind: 8mph
Humidity: 92%   Direction: 190°S
Pressure: 30.11"   Gusts: NA
Location:  33.8946°N, 106.565°W
Report Text: KONM 220935Z AUTO 19007KT 10SM SCT085 11/10 A3011 RMK AO2 T01130100
Loading
Personal Weather Stations






























Interactive Weather Map
Tropical Storm Tracking
New forecast layout! Learn more

10-Day Weather Forecast

Advertisements
Track Severe Weather on mobile